createdAt,value
2023-04-28T00:00:53.757Z,4.19
2023-04-28T00:03:20.217Z,4.21
2023-04-28T00:05:46.689Z,4.13
2023-04-28T00:08:13.058Z,3.93
2023-04-28T00:10:39.390Z,3.73
2023-04-28T00:13:05.731Z,3.80
2023-04-28T00:15:32.084Z,3.89
2023-04-28T00:17:58.484Z,3.72
2023-04-28T00:20:24.837Z,3.73
2023-04-28T00:22:51.195Z,3.74
2023-04-28T00:25:17.573Z,3.53
2023-04-28T00:27:43.949Z,3.59
2023-04-28T00:30:10.606Z,3.59
2023-04-28T00:32:37.007Z,3.48
2023-04-28T00:35:03.451Z,3.53
2023-04-28T00:37:29.815Z,3.58
2023-04-28T00:39:56.273Z,3.55
2023-04-28T00:42:22.660Z,3.43
2023-04-28T00:44:49.018Z,3.27
2023-04-28T00:47:16.497Z,3.36
2023-04-28T00:49:42.837Z,3.38
2023-04-28T00:52:09.192Z,3.44
2023-04-28T00:54:35.588Z,3.44
2023-04-28T00:57:02.190Z,3.43
2023-04-28T00:59:29.341Z,3.46
2023-04-28T01:01:55.697Z,3.47
2023-04-28T01:04:22.183Z,3.35
2023-04-28T01:06:49.404Z,3.32
2023-04-28T01:09:15.747Z,3.41
2023-04-28T01:11:42.117Z,3.42
2023-04-28T01:14:08.481Z,3.40
2023-04-28T01:16:34.886Z,3.26
2023-04-28T01:19:01.290Z,3.26
2023-04-28T01:21:30.870Z,3.28
2023-04-28T01:23:57.872Z,2.77
2023-04-28T01:26:24.499Z,2.95
2023-04-28T01:28:50.862Z,3.11
2023-04-28T01:31:17.237Z,3.10
2023-04-28T01:33:43.640Z,3.04
2023-04-28T01:36:10.012Z,3.01
2023-04-28T01:38:36.360Z,3.02
2023-04-28T01:41:02.699Z,3.01
2023-04-28T01:43:29.318Z,3.03
2023-04-28T01:45:55.675Z,3.05
2023-04-28T01:48:22.037Z,3.08
2023-04-28T01:50:48.385Z,3.01
2023-04-28T01:53:14.738Z,2.90
2023-04-28T01:55:41.085Z,2.94
2023-04-28T01:58:07.437Z,2.90
2023-04-28T02:00:33.762Z,2.81
2023-04-28T02:03:00.220Z,2.87
2023-04-28T02:05:26.604Z,2.90
2023-04-28T02:07:52.950Z,2.88
2023-04-28T02:10:19.289Z,2.83
2023-04-28T02:12:45.640Z,2.60
2023-04-28T02:15:12.004Z,2.63
2023-04-28T02:17:38.407Z,2.67
2023-04-28T02:20:05.223Z,2.68
2023-04-28T02:22:31.627Z,2.68
2023-04-28T02:24:57.970Z,2.71
2023-04-28T02:27:24.343Z,2.60
2023-04-28T02:29:50.737Z,2.66
2023-04-28T02:32:17.102Z,2.73
2023-04-28T02:34:43.444Z,2.75
2023-04-28T02:37:09.780Z,2.72
2023-04-28T02:39:36.121Z,2.75
2023-04-28T02:42:02.476Z,2.71
2023-04-28T02:44:28.823Z,2.70
2023-04-28T02:46:55.245Z,2.71
2023-04-28T02:49:21.627Z,2.65
2023-04-28T02:51:47.980Z,2.57
2023-04-28T02:54:14.582Z,2.52
2023-04-28T02:56:41.119Z,2.49
2023-04-28T02:59:07.486Z,2.48
2023-04-28T03:01:33.865Z,2.61
2023-04-28T03:04:00.371Z,2.54
2023-04-28T03:06:26.950Z,2.52
2023-04-28T03:08:53.314Z,2.48
2023-04-28T03:11:19.652Z,2.46
2023-04-28T03:13:46.008Z,2.43
2023-04-28T03:16:12.450Z,2.38
2023-04-28T03:18:38.861Z,2.46
2023-04-28T03:21:05.244Z,2.43
2023-04-28T03:23:31.604Z,2.47
2023-04-28T03:25:57.943Z,2.49
2023-04-28T03:28:24.310Z,2.47
2023-04-28T03:30:50.661Z,2.21
2023-04-28T03:33:17.028Z,1.93
2023-04-28T03:35:43.366Z,2.02
2023-04-28T03:38:09.737Z,2.14
2023-04-28T03:40:36.091Z,2.20
2023-04-28T03:43:04.506Z,2.24
2023-04-28T03:45:31.329Z,2.21
2023-04-28T03:47:57.785Z,2.13
2023-04-28T03:50:26.149Z,2.17
2023-04-28T03:52:53.077Z,2.18
2023-04-28T03:55:19.428Z,2.23
2023-04-28T03:57:45.782Z,2.19
2023-04-28T04:00:12.760Z,2.13
2023-04-28T04:02:39.250Z,2.21
2023-04-28T04:05:06.038Z,2.20
2023-04-28T04:07:32.502Z,2.26
2023-04-28T04:09:58.870Z,2.27
2023-04-28T04:12:25.219Z,2.34
2023-04-28T04:14:51.576Z,2.37
2023-04-28T04:17:17.914Z,2.22
2023-04-28T04:19:44.258Z,2.29
2023-04-28T04:22:10.602Z,2.38
2023-04-28T04:24:36.957Z,2.34
2023-04-28T04:27:03.309Z,2.02
2023-04-28T04:29:29.676Z,1.75
2023-04-28T04:31:56.012Z,1.88
2023-04-28T04:34:22.358Z,1.92
2023-04-28T04:36:48.701Z,2.15
2023-04-28T04:39:15.046Z,2.09
2023-04-28T04:41:41.384Z,2.02
2023-04-28T04:44:07.736Z,2.02
2023-04-28T04:46:34.102Z,1.92
2023-04-28T04:49:00.454Z,1.90
2023-04-28T04:51:26.797Z,1.73
2023-04-28T04:53:53.141Z,1.73
2023-04-28T04:56:19.493Z,1.81
2023-04-28T04:58:45.865Z,1.90
2023-04-28T05:01:12.217Z,2.07
2023-04-28T05:03:38.657Z,2.49
2023-04-28T05:06:05.136Z,3.02
2023-04-28T05:08:31.481Z,3.79
2023-04-28T05:10:57.868Z,4.54
2023-04-28T05:13:24.222Z,4.54
2023-04-28T05:15:50.574Z,4.64
2023-04-28T05:18:16.941Z,4.82
2023-04-28T05:20:43.282Z,5.04
2023-04-28T05:23:09.629Z,5.25
2023-04-28T05:25:36.005Z,5.08
2023-04-28T05:28:02.356Z,5.12
2023-04-28T05:30:28.709Z,5.70
2023-04-28T05:32:55.060Z,6.42
2023-04-28T05:35:21.437Z,6.50
2023-04-28T05:37:47.808Z,6.34
2023-04-28T05:40:14.180Z,6.32
2023-04-28T05:42:40.534Z,6.72
2023-04-28T05:45:07.346Z,6.88
2023-04-28T05:47:33.806Z,6.86
2023-04-28T05:50:00.220Z,6.78
2023-04-28T05:52:26.566Z,6.56
2023-04-28T05:54:52.895Z,6.28
2023-04-28T05:57:19.247Z,6.17
2023-04-28T05:59:45.589Z,6.43
2023-04-28T06:02:11.951Z,6.91
2023-04-28T06:04:38.921Z,7.25
2023-04-28T06:07:05.591Z,7.31
2023-04-28T06:09:31.947Z,7.37
2023-04-28T06:11:58.294Z,7.16
2023-04-28T06:14:24.646Z,7.00
2023-04-28T06:16:51.066Z,7.36
2023-04-28T06:19:17.463Z,8.17
2023-04-28T06:21:43.810Z,8.81
2023-04-28T06:24:10.148Z,9.53
2023-04-28T06:26:36.508Z,9.98
2023-04-28T06:29:02.959Z,10.37
2023-04-28T06:31:29.378Z,10.39
2023-04-28T06:33:55.751Z,11.13
2023-04-28T06:36:22.098Z,11.52
2023-04-28T06:38:48.433Z,11.76
2023-04-28T06:41:14.779Z,11.79
2023-04-28T06:43:41.149Z,11.41
2023-04-28T06:46:07.513Z,11.82
2023-04-28T06:48:33.874Z,12.34
2023-04-28T06:51:00.220Z,11.86
2023-04-28T06:53:26.563Z,12.68
2023-04-28T06:55:53.041Z,12.27
2023-04-28T06:58:19.440Z,12.36
2023-04-28T07:00:45.862Z,12.43
2023-04-28T07:03:12.462Z,12.89
2023-04-28T07:05:38.865Z,13.04
2023-04-28T07:08:05.788Z,13.60
2023-04-28T07:10:32.124Z,13.54
2023-04-28T07:12:58.472Z,13.36
2023-04-28T07:15:24.814Z,13.49
2023-04-28T07:17:51.225Z,13.88
2023-04-28T07:20:17.626Z,13.64
2023-04-28T07:22:43.986Z,13.08
2023-04-28T07:25:10.319Z,12.81
2023-04-28T07:27:36.684Z,12.91
2023-04-28T07:30:11.633Z,13.35
2023-04-28T07:32:45.324Z,12.93
2023-04-28T07:35:11.687Z,12.72
2023-04-28T07:37:38.069Z,12.77
2023-04-28T07:40:05.476Z,12.96
2023-04-28T07:42:31.869Z,13.22
2023-04-28T07:44:58.255Z,13.31
2023-04-28T07:47:24.983Z,13.16
2023-04-28T09:40:17.947Z,16.26
2023-04-28T09:43:18.715Z,16.16
2023-04-28T09:45:47.801Z,16.00
2023-04-28T09:48:14.287Z,16.47
2023-04-28T09:50:40.679Z,16.98
2023-04-28T09:53:07.039Z,16.95
2023-04-28T09:55:33.386Z,16.25
2023-04-28T09:57:59.738Z,16.59
2023-04-28T10:00:26.125Z,16.30
2023-04-28T10:02:52.554Z,16.11
2023-04-28T10:05:19.377Z,15.76
2023-04-28T10:07:45.913Z,15.61
2023-04-28T10:10:12.315Z,15.51
2023-04-28T10:12:39.116Z,15.39
2023-04-28T10:15:06.983Z,15.05
2023-04-28T10:17:33.228Z,14.70
2023-04-28T10:19:59.446Z,14.62
2023-04-28T10:22:30.729Z,14.52
2023-04-28T10:25:11.830Z,14.50
2023-04-28T10:27:44.421Z,15.06
2023-04-28T10:30:26.381Z,14.83
2023-04-28T10:33:06.455Z,14.82
2023-04-28T10:35:32.707Z,14.71
2023-04-28T10:38:05.215Z,15.14
2023-04-28T10:40:31.978Z,15.54
2023-04-28T10:42:58.209Z,15.70
2023-04-28T10:45:43.176Z,15.71
2023-04-28T10:48:09.405Z,15.76
2023-04-28T10:50:39.208Z,15.83
2023-04-28T10:53:05.716Z,16.15
2023-04-28T10:55:32.692Z,16.66
2023-04-28T10:58:16.951Z,17.03
2023-04-28T11:00:43.594Z,15.70
2023-04-28T11:03:10.058Z,15.70
2023-04-28T11:05:36.442Z,16.23
2023-04-28T11:08:21.284Z,16.54
2023-04-28T11:11:06.252Z,16.22
2023-04-28T11:13:32.495Z,16.67
2023-04-28T11:16:04.798Z,16.62
2023-04-28T11:18:49.617Z,16.03
2023-04-28T11:21:15.836Z,16.21
2023-04-28T11:23:42.421Z,16.31
2023-04-28T11:26:08.614Z,16.65
2023-04-28T11:28:34.844Z,16.48
2023-04-28T11:31:11.042Z,17.00
2023-04-28T11:33:37.250Z,17.20
2023-04-28T11:36:03.565Z,17.40
2023-04-28T11:38:29.788Z,17.50
2023-04-28T11:40:58.805Z,17.63
2023-04-28T11:43:36.535Z,17.11
2023-04-28T11:46:10.156Z,17.22
2023-04-28T11:48:36.405Z,17.38
2023-04-28T11:51:02.624Z,17.24
2023-04-28T11:53:44.400Z,16.31
2023-04-28T11:56:10.723Z,16.14
2023-04-28T11:58:36.955Z,15.93
2023-04-28T12:01:12.681Z,15.74
2023-04-28T12:03:45.169Z,15.05
2023-04-28T12:06:11.412Z,14.75
2023-04-28T12:08:37.647Z,15.02
2023-04-28T12:11:07.428Z,15.17
2023-04-28T12:13:33.630Z,15.68
2023-04-28T12:16:00.033Z,15.46
2023-04-28T12:18:26.460Z,15.48
2023-04-28T12:20:52.677Z,15.47
2023-04-28T12:23:28.615Z,15.34
2023-04-28T12:25:54.829Z,15.58
2023-04-28T12:28:21.035Z,15.79
2023-04-28T12:30:47.257Z,15.17
2023-04-28T12:33:26.081Z,15.15
2023-04-28T12:35:52.369Z,15.17
2023-04-28T12:38:18.578Z,15.11
2023-04-28T12:40:44.830Z,15.35
2023-04-28T12:43:11.046Z,15.39
2023-04-28T12:45:38.769Z,15.27
2023-04-28T12:48:05.558Z,15.33
2023-04-28T12:50:31.820Z,15.71
2023-04-28T12:52:58.037Z,15.38
2023-04-28T12:55:24.513Z,15.46
2023-04-28T12:57:50.989Z,15.38
2023-04-28T13:00:17.205Z,15.14
2023-04-28T13:02:43.512Z,15.37
2023-04-28T13:05:09.848Z,15.55
2023-04-28T13:07:36.103Z,15.86
2023-04-28T13:10:02.310Z,15.74
2023-04-28T13:12:28.524Z,15.67
2023-04-28T13:14:54.746Z,15.87
2023-04-28T13:17:20.969Z,16.22
2023-04-28T13:19:47.422Z,16.05
2023-04-28T13:22:13.986Z,15.72
2023-04-28T13:24:40.194Z,15.59
2023-04-28T13:27:06.410Z,15.44
2023-04-28T13:29:32.619Z,15.44
2023-04-28T13:31:58.872Z,15.54
2023-04-28T13:34:25.119Z,15.50
2023-04-28T13:36:51.621Z,15.71
2023-04-28T13:39:17.967Z,15.96
2023-04-28T13:41:44.201Z,15.62
2023-04-28T13:44:10.435Z,15.73
2023-04-28T13:46:36.647Z,15.62
2023-04-28T13:49:02.842Z,15.71
2023-04-28T13:51:29.065Z,15.59
2023-04-28T13:53:55.288Z,15.63
2023-04-28T13:56:21.501Z,15.76
2023-04-28T13:58:47.723Z,16.07
2023-04-28T14:01:13.977Z,15.94
2023-04-28T14:03:40.428Z,15.96
2023-04-28T14:06:06.835Z,16.21
2023-04-28T14:08:33.041Z,16.19
2023-04-28T14:10:59.255Z,16.13
2023-04-28T14:13:25.483Z,15.77
2023-04-28T14:15:59.194Z,15.69
2023-04-28T14:18:25.923Z,15.73
2023-04-28T14:20:52.151Z,15.65
2023-04-28T14:23:18.382Z,15.41
2023-04-28T14:25:44.622Z,15.22
2023-04-28T14:28:10.851Z,15.45
2023-04-28T14:30:37.059Z,15.47
2023-04-28T14:33:03.299Z,15.50
2023-04-28T14:35:29.542Z,15.51
2023-04-28T14:37:55.763Z,15.36
2023-04-28T14:40:21.991Z,15.47
2023-04-28T14:42:48.870Z,15.56
2023-04-28T14:45:15.078Z,15.44
2023-04-28T14:47:41.396Z,15.50
2023-04-28T14:50:07.907Z,15.60
2023-04-28T14:52:34.110Z,15.73
2023-04-28T14:55:00.502Z,15.59
2023-04-28T14:57:26.865Z,15.25
2023-04-28T14:59:53.191Z,15.11
2023-04-28T15:02:19.465Z,15.01
2023-04-28T15:04:46.103Z,15.09
2023-04-28T15:07:12.497Z,15.30
2023-04-28T15:09:38.694Z,15.17
2023-04-28T15:12:04.929Z,14.92
2023-04-28T15:14:31.152Z,15.00
2023-04-28T15:16:57.362Z,15.09
2023-04-28T15:19:23.556Z,15.14
2023-04-28T15:21:49.878Z,15.09
2023-04-28T15:24:17.800Z,15.02
2023-04-28T15:26:44.013Z,14.96
2023-04-28T15:29:10.252Z,14.99
2023-04-28T15:31:36.835Z,14.86
2023-04-28T15:34:03.104Z,14.74
2023-04-28T15:36:29.317Z,14.82
2023-04-28T15:38:55.519Z,14.82
2023-04-28T15:41:21.738Z,14.72
2023-04-28T17:37:01.355Z,12.86
2023-04-28T18:14:27.803Z,11.93
2023-04-28T18:48:47.079Z,11.58
2023-04-28T19:10:05.877Z,11.16
2023-04-28T19:30:54.650Z,10.88
2023-04-28T19:33:28.270Z,10.87
2023-04-28T20:28:46.157Z,9.07
2023-04-28T20:31:18.797Z,9.10
2023-04-28T20:33:45.097Z,8.87
2023-04-28T20:36:12.289Z,8.90
2023-04-28T20:38:38.508Z,8.76
2023-04-28T20:41:04.720Z,8.85
2023-04-28T20:43:30.947Z,8.89
2023-04-28T20:45:57.175Z,8.72
2023-04-28T20:48:23.392Z,8.74
2023-04-28T20:50:49.600Z,8.57
2023-04-28T20:53:15.800Z,8.46
2023-04-28T20:55:42.020Z,8.28
2023-04-28T20:58:08.230Z,8.41
2023-04-28T21:00:34.480Z,8.47
2023-04-28T21:03:00.812Z,8.39
2023-04-28T21:05:27.256Z,8.13
2023-04-28T21:07:53.452Z,8.14
2023-04-28T21:10:19.785Z,8.31
2023-04-28T21:12:46.146Z,8.29
2023-04-28T21:15:12.494Z,8.31
2023-04-28T21:17:38.856Z,8.15
2023-04-28T21:20:05.718Z,8.28
2023-04-28T21:22:32.054Z,8.35
2023-04-28T21:24:58.399Z,8.23
2023-04-28T21:27:24.738Z,8.12
2023-04-28T21:29:51.361Z,8.17
2023-04-28T21:32:17.972Z,8.22
2023-04-28T21:34:47.673Z,8.26
2023-04-28T21:37:14.009Z,8.30
2023-04-28T21:39:40.398Z,8.36
2023-04-28T21:42:09.769Z,8.33
2023-04-28T21:44:36.114Z,8.50
2023-04-28T21:47:02.453Z,8.27
2023-04-28T21:49:28.794Z,8.25
2023-04-28T21:51:56.840Z,8.21
2023-04-28T21:54:23.205Z,8.17
2023-04-28T21:56:49.560Z,8.25
2023-04-28T21:59:15.908Z,8.22
2023-04-28T22:01:42.290Z,8.32
2023-04-28T22:04:08.993Z,8.31
2023-04-28T22:06:35.471Z,8.27
2023-04-28T22:09:01.968Z,8.35
2023-04-28T22:11:28.376Z,8.12
2023-04-28T22:13:54.784Z,7.83
2023-04-28T22:16:21.150Z,7.85
2023-04-28T22:18:47.501Z,7.78
2023-04-28T22:21:13.884Z,7.90
2023-04-28T22:23:40.249Z,7.63
2023-04-28T22:26:06.599Z,7.46
2023-04-28T22:28:32.954Z,7.36
2023-04-28T22:30:59.328Z,7.53
2023-04-28T22:33:25.661Z,7.54
2023-04-28T22:35:52.012Z,7.52
2023-04-28T22:38:18.351Z,7.42
2023-04-28T22:40:44.880Z,7.41
2023-04-28T22:43:11.277Z,7.34
2023-04-28T22:45:37.648Z,7.24
2023-04-28T22:48:04.270Z,7.31
2023-04-28T22:50:30.664Z,7.36
2023-04-28T22:52:57.182Z,7.40
2023-04-28T22:55:23.528Z,7.39
2023-04-28T22:57:49.887Z,7.43
2023-04-28T23:00:16.310Z,7.38
2023-04-28T23:02:42.762Z,7.47
2023-04-28T23:05:09.257Z,7.52
2023-04-28T23:07:35.614Z,7.57
2023-04-28T23:10:02.975Z,7.49
2023-04-28T23:12:29.310Z,7.45
2023-04-28T23:14:55.662Z,7.39
2023-04-28T23:17:22.027Z,7.35
2023-04-28T23:19:48.525Z,7.40
2023-04-28T23:22:15.030Z,7.39
2023-04-28T23:24:41.396Z,7.41
2023-04-28T23:27:07.738Z,7.36
2023-04-28T23:29:34.080Z,7.27
2023-04-28T23:32:00.639Z,7.27
2023-04-28T23:34:27.168Z,7.28
2023-04-28T23:36:53.561Z,7.39
2023-04-28T23:39:19.908Z,7.50
2023-04-28T23:41:46.265Z,7.60
2023-04-28T23:44:12.609Z,7.52
2023-04-28T23:46:38.975Z,7.50
2023-04-28T23:49:05.326Z,7.39
2023-04-28T23:51:31.684Z,7.51
2023-04-28T23:53:58.148Z,7.64
2023-04-28T23:56:24.508Z,7.56
2023-04-28T23:58:50.850Z,7.56
